Time;durP1;ratioP1;P1;durP2;ratioP2;P2;SDS_P1;SDS_P2;PMS_P1;PMS_P2;Temp;Humidity;BMP_temperature;BMP_pressure;BME280_temperature;BME280_humidity;BME280_pressure;Samples;Min_cycle;Max_cycle;Signal;HPM_P1;HPM_P2
2023/12/13 05:47:44;;;;;;;17.15;9.48;;;;;;;8.25;100.00;99439.06;5107972;24;20465;-77
2023/12/13 05:50:09;;;;;;;20.58;10.38;;;;;;;8.17;100.00;99441.03;4774477;29;20047;-76
2023/12/13 05:52:36;;;;;;;20.95;11.57;;;;;;;8.11;100.00;99437.84;4780620;29;20118;-77
2023/12/13 05:55:02;;;;;;;18.13;10.40;;;;;;;8.14;100.00;99437.06;4778908;29;20395;-76
2023/12/13 05:57:28;;;;;;;21.15;9.93;;;;;;;8.11;100.00;99442.63;4792480;29;20096;-76
2023/12/13 05:59:53;;;;;;;17.75;10.57;;;;;;;8.06;100.00;99434.66;4779549;29;20463;-76
2023/12/13 06:02:18;;;;;;;21.70;11.23;;;;;;;8.09;100.00;99439.44;4778211;30;20045;-76
2023/12/13 06:04:44;;;;;;;17.38;11.32;;;;;;;8.10;100.00;99432.69;4782979;29;20129;-76
2023/12/13 06:07:10;;;;;;;22.08;11.90;;;;;;;8.06;100.00;99434.66;4779759;29;20799;-76
2023/12/13 06:09:35;;;;;;;19.15;10.38;;;;;;;8.13;100.00;99440.22;4777394;29;20119;-76
2023/12/13 06:12:02;;;;;;;17.95;10.38;;;;;;;8.16;100.00;99445.03;4779923;29;20046;-76
2023/12/13 06:14:28;;;;;;;18.20;11.68;;;;;;;8.07;100.00;99434.25;4777103;30;20044;-76
2023/12/13 06:16:53;;;;;;;23.48;10.65;;;;;;;8.18;100.00;99442.63;4778969;29;20638;-76
2023/12/13 06:19:18;;;;;;;19.60;9.70;;;;;;;8.25;100.00;99437.06;4777701;29;20039;-76
2023/12/13 06:21:44;;;;;;;20.65;10.88;;;;;;;8.22;100.00;99437.88;4776134;29;20087;-76
2023/12/13 06:24:09;;;;;;;20.50;10.48;;;;;;;8.20;100.00;99445.00;4777959;29;20036;-76
2023/12/13 06:26:34;;;;;;;17.25;10.35;;;;;;;8.26;100.00;99449.00;4789192;29;20403;-77
2023/12/13 06:29:00;;;;;;;18.90;11.18;;;;;;;8.30;100.00;99445.00;4788990;29;20347;-76
2023/12/13 06:31:25;;;;;;;26.05;11.27;;;;;;;8.33;100.00;99449.03;4774879;29;20060;-76
2023/12/13 06:33:51;;;;;;;23.15;11.48;;;;;;;8.32;100.00;99447.41;4778295;29;20459;-76
2023/12/13 06:36:16;;;;;;;19.90;11.50;;;;;;;8.34;100.00;99454.19;4773658;29;20047;-76
2023/12/13 06:38:41;;;;;;;18.38;10.88;;;;;;;8.52;100.00;99445.06;4776535;29;20031;-78
2023/12/13 06:41:07;;;;;;;19.27;11.60;;;;;;;8.67;100.00;99452.22;4778371;29;20481;-76
2023/12/13 06:43:32;;;;;;;26.05;10.73;;;;;;;8.57;100.00;99450.22;4775724;29;20035;-76
2023/12/13 06:45:57;;;;;;;24.60;11.25;;;;;;;8.51;100.00;99452.63;4778658;29;20116;-76
2023/12/13 06:48:23;;;;;;;21.20;10.77;;;;;;;8.46;100.00;99461.41;4774992;29;20040;-76
2023/12/13 06:50:48;;;;;;;26.40;11.45;;;;;;;8.46;100.00;99461.41;4763892;30;20709;-76
2023/12/13 06:53:13;;;;;;;18.23;10.48;;;;;;;8.42;100.00;99462.59;4760799;30;20036;-76
2023/12/13 06:55:39;;;;;;;19.30;10.23;;;;;;;8.49;100.00;99473.75;4759628;30;20457;-76
2023/12/13 06:58:07;;;;;;;21.20;10.32;;;;;;;8.45;100.00;99461.78;4764860;30;20035;-76
2023/12/13 07:00:32;;;;;;;18.40;9.45;;;;;;;8.52;100.00;99472.97;4762409;30;20039;-75
2023/12/13 07:02:58;;;;;;;24.20;11.68;;;;;;;8.48;100.00;99472.16;4761884;30;20044;-76
2023/12/13 07:05:23;;;;;;;24.10;11.70;;;;;;;8.48;100.00;99467.38;4761484;30;20510;-75
2023/12/13 07:07:48;;;;;;;20.83;10.75;;;;;;;8.46;100.00;99471.75;4765268;30;20031;-77
2023/12/13 07:10:16;;;;;;;25.38;10.45;;;;;;;8.96;100.00;99471.72;4759179;30;20044;-76
2023/12/13 07:12:41;;;;;;;22.27;11.32;;;;;;;8.78;100.00;99479.31;4757664;30;20083;-76
2023/12/13 07:15:08;;;;;;;26.58;11.73;;;;;;;8.57;100.00;99474.53;4764190;30;20142;-76
2023/12/13 07:17:33;;;;;;;18.65;9.55;;;;;;;8.49;100.00;99482.09;4765983;30;20046;-76
2023/12/13 07:19:59;;;;;;;22.02;11.25;;;;;;;8.50;100.00;99478.13;4775891;29;20032;-76
2023/12/13 07:22:24;;;;;;;22.00;10.40;;;;;;;8.44;100.00;99482.50;4757052;30;20125;-76
2023/12/13 07:24:50;;;;;;;22.52;11.32;;;;;;;8.40;100.00;99481.69;4770058;30;20094;-76
2023/12/13 07:27:16;;;;;;;22.42;9.98;;;;;;;8.34;100.00;99479.28;4764162;30;20384;-76
2023/12/13 07:29:42;;;;;;;23.95;10.52;;;;;;;8.35;100.00;99480.88;4761878;30;20021;-76
2023/12/13 07:32:08;;;;;;;23.90;11.48;;;;;;;8.30;100.00;99481.25;4760821;30;20035;-76
2023/12/13 07:34:33;;;;;;;21.08;11.13;;;;;;;8.37;100.00;99482.47;4762425;30;20047;-76
2023/12/13 07:37:00;;;;;;;24.27;12.10;;;;;;;8.32;100.00;99490.03;4763952;30;20035;-76
2023/12/13 07:39:26;;;;;;;22.23;11.50;;;;;;;8.34;100.00;99486.84;4769164;29;20024;-76
2023/12/13 07:41:51;;;;;;;21.65;11.50;;;;;;;8.35;100.00;99489.25;4763715;30;20050;-76
2023/12/13 07:44:17;;;;;;;28.58;12.32;;;;;;;8.31;100.00;99494.03;4761507;30;20035;-76
2023/12/13 07:46:42;;;;;;;21.00;12.27;;;;;;;8.32;100.00;99492.81;4766870;30;20043;-76
2023/12/13 07:49:08;;;;;;;25.10;11.65;;;;;;;8.37;100.00;99488.03;4764153;30;20039;-76
2023/12/13 07:51:34;;;;;;;24.70;11.82;;;;;;;8.34;100.00;99501.56;4765176;30;20476;-76
2023/12/13 07:54:01;;;;;;;23.15;10.93;;;;;;;8.36;100.00;99492.81;4758367;30;20130;-76
2023/12/13 07:56:28;;;;;;;24.52;11.07;;;;;;;8.35;100.00;99505.97;4764879;30;20043;-76
2023/12/13 07:58:54;;;;;;;24.95;12.25;;;;;;;8.36;100.00;99503.97;4765541;30;20085;-76
2023/12/13 08:01:19;;;;;;;19.42;11.10;;;;;;;8.42;100.00;99501.63;4764066;30;20044;-76
2023/12/13 08:03:45;;;;;;;25.42;11.88;;;;;;;8.48;100.00;99511.19;4760916;29;20040;-76
2023/12/13 08:06:12;;;;;;;21.10;11.20;;;;;;;8.45;100.00;99511.97;4757873;30;20453;-76
2023/12/13 08:08:39;;;;;;;19.55;10.93;;;;;;;8.41;100.00;99511.19;4762395;30;20039;-75
2023/12/13 08:11:04;;;;;;;23.65;11.35;;;;;;;8.35;100.00;99511.53;4761317;30;20053;-75
2023/12/13 08:13:30;;;;;;;23.42;10.13;;;;;;;8.37;100.00;99505.59;4760111;30;20032;-75
2023/12/13 08:15:55;;;;;;;20.90;11.48;;;;;;;8.42;100.00;99507.22;4761129;30;20409;-74
2023/12/13 08:18:21;;;;;;;21.25;10.60;;;;;;;8.42;100.00;99512.78;4765991;30;20384;-74
2023/12/13 08:20:46;;;;;;;21.13;9.48;;;;;;;8.46;100.00;99517.16;4760152;30;20400;-74
2023/12/13 08:23:11;;;;;;;26.08;11.48;;;;;;;8.53;100.00;99513.56;4774252;29;20043;-74
2023/12/13 08:25:38;;;;;;;16.98;9.43;;;;;;;8.49;100.00;99512.78;4763054;30;20473;-75
2023/12/13 08:28:03;;;;;;;25.85;10.50;;;;;;;8.36;100.00;99515.13;4752817;30;20032;-74
2023/12/13 08:30:29;;;;;;;23.83;11.25;;;;;;;8.42;100.00;99515.56;4757567;30;20801;-74
2023/12/13 08:32:54;;;;;;;21.05;10.85;;;;;;;8.32;100.00;99520.69;4766461;30;20055;-74
2023/12/13 08:35:19;;;;;;;20.92;10.45;;;;;;;8.41;100.00;99522.31;4764079;30;20488;-74
2023/12/13 08:37:44;;;;;;;23.80;10.65;;;;;;;8.39;100.00;99536.66;4761822;30;20059;-75
2023/12/13 08:40:10;;;;;;;23.33;11.05;;;;;;;8.44;100.00;99527.91;4781180;29;20063;-75
2023/12/13 08:42:37;;;;;;;23.13;11.35;;;;;;;8.52;100.00;99523.16;4766510;29;20047;-74
2023/12/13 08:45:03;;;;;;;20.38;10.10;;;;;;;8.61;100.00;99531.91;4768666;30;20043;-75
2023/12/13 08:47:28;;;;;;;27.80;11.93;;;;;;;8.53;100.00;99539.47;4765945;30;20040;-75
2023/12/13 08:49:54;;;;;;;28.20;13.43;;;;;;;8.58;100.00;99532.72;4762026;30;20496;-75
2023/12/13 08:52:20;;;;;;;20.25;11.57;;;;;;;8.65;100.00;99538.28;4763442;30;20047;-75
2023/12/13 08:54:46;;;;;;;21.90;11.60;;;;;;;8.58;100.00;99538.31;4764630;30;20051;-75
2023/12/13 08:57:11;;;;;;;28.15;13.23;;;;;;;8.48;100.00;99539.88;4765823;30;20445;-75
2023/12/13 08:59:37;;;;;;;20.10;10.88;;;;;;;8.52;100.00;99543.47;4767834;30;20598;-75
2023/12/13 09:02:02;;;;;;;19.10;11.55;;;;;;;8.53;100.00;99533.09;4766120;30;20039;-75
2023/12/13 09:04:28;;;;;;;26.60;11.52;;;;;;;8.49;100.00;99541.47;4763515;30;20536;-76
2023/12/13 09:06:53;;;;;;;23.48;12.48;;;;;;;8.56;100.00;99546.28;4769473;30;20539;-75
2023/12/13 09:09:18;;;;;;;23.23;10.68;;;;;;;8.62;100.00;99546.66;4768130;30;20462;-76
2023/12/13 09:11:46;;;;;;;21.35;10.25;;;;;;;8.58;100.00;99552.25;4765406;30;20126;-75
2023/12/13 09:14:11;;;;;;;21.58;11.88;;;;;;;8.54;100.00;99554.25;4767417;30;20039;-76
2023/12/13 09:16:37;;;;;;;25.65;11.85;;;;;;;8.61;100.00;99554.22;4760072;30;20384;-76
2023/12/13 09:19:02;;;;;;;25.80;12.90;;;;;;;8.52;100.00;99557.41;4764654;30;20040;-75
2023/12/13 09:21:27;;;;;;;26.90;11.88;;;;;;;8.57;100.00;99556.22;4767580;30;20106;-75
2023/12/13 09:23:53;;;;;;;24.85;11.65;;;;;;;8.59;100.00;99562.19;4770876;30;20028;-75
2023/12/13 09:26:18;;;;;;;21.33;11.55;;;;;;;8.61;100.00;99562.59;4765286;30;20035;-75
2023/12/13 09:28:44;;;;;;;26.05;11.88;;;;;;;8.72;100.00;99559.81;4769398;30;20599;-75
2023/12/13 09:31:11;;;;;;;26.63;11.50;;;;;;;8.77;100.00;99564.19;4766333;30;20031;-75
2023/12/13 09:33:37;;;;;;;24.00;11.93;;;;;;;8.68;100.00;99570.97;4767130;30;20432;-75
2023/12/13 09:36:03;;;;;;;22.38;11.65;;;;;;;8.68;100.00;99565.38;4772595;30;20038;-75
2023/12/13 09:38:29;;;;;;;30.90;14.15;;;;;;;8.64;100.00;99569.38;4764969;30;20032;-76
2023/12/13 09:40:55;;;;;;;21.33;11.77;;;;;;;8.64;100.00;99570.16;4766071;30;20047;-75
2023/12/13 09:43:23;;;;;;;26.90;11.88;;;;;;;8.69;100.00;99578.16;4767300;30;20051;-76
2023/12/13 09:45:50;;;;;;;23.73;11.68;;;;;;;8.70;100.00;99574.16;4763487;30;20092;-75
2023/12/13 09:48:21;;;;;;;28.88;12.13;;;;;;;8.78;100.00;99571.38;4779356;29;20051;-76
2023/12/13 09:50:51;;;;;;;26.83;13.10;;;;;;;8.69;100.00;99571.78;4765306;30;20047;-76
2023/12/13 09:53:20;;;;;;;31.83;14.75;;;;;;;8.72;100.00;99582.94;4765256;30;20523;-75
2023/12/13 09:55:46;;;;;;;27.45;13.25;;;;;;;8.58;100.00;99576.53;4768636;30;20043;-76
2023/12/13 09:58:12;;;;;;;25.02;12.93;;;;;;;8.68;100.00;99579.34;4765165;30;20075;-76
2023/12/13 10:00:37;;;;;;;26.05;13.85;;;;;;;8.66;100.00;99581.72;4777883;29;20077;-76
2023/12/13 10:03:02;;;;;;;25.77;12.30;;;;;;;8.94;100.00;99585.75;4762535;30;20039;-76
2023/12/13 10:05:28;;;;;;;25.05;12.90;;;;;;;8.87;100.00;99591.31;4765472;30;20552;-75
2023/12/13 10:08:01;;;;;;;28.00;13.98;;;;;;;8.79;100.00;99590.53;4770642;30;20042;-76
2023/12/13 10:10:36;;;;;;;29.48;12.30;;;;;;;8.78;100.00;99591.72;4765002;30;20049;-77
2023/12/13 10:13:02;;;;;;;32.00;13.90;;;;;;;8.81;100.00;99598.47;4768303;29;20600;-77
2023/12/13 10:15:31;;;;;;;25.48;13.25;;;;;;;8.77;100.00;99601.28;4766079;30;20040;-77
2023/12/13 10:17:58;;;;;;;27.38;13.10;;;;;;;8.78;100.00;99607.66;4764408;30;20102;-77
2023/12/13 10:20:24;;;;;;;28.73;13.43;;;;;;;8.84;100.00;99611.66;4762788;30;20091;-77
2023/12/13 10:22:50;;;;;;;27.40;13.68;;;;;;;8.83;100.00;99610.03;4763750;30;20093;-77
2023/12/13 10:25:21;;;;;;;30.75;14.05;;;;;;;8.71;100.00;99619.59;4776214;29;20036;-78
2023/12/13 10:27:47;;;;;;;28.67;13.23;;;;;;;8.73;100.00;99612.44;4765515;30;20408;-78
2023/12/13 10:30:12;;;;;;;31.65;13.82;;;;;;;8.72;100.00;99616.41;4767127;30;20071;-77
2023/12/13 10:32:38;;;;;;;30.77;13.93;;;;;;;8.78;100.00;99618.81;4765053;30;20562;-77
2023/12/13 10:35:05;;;;;;;30.13;13.13;;;;;;;8.77;100.00;99622.78;4766594;30;20027;-77
2023/12/13 10:37:33;;;;;;;26.15;13.60;;;;;;;8.80;100.00;99622.00;4761389;30;20031;-78
2023/12/13 10:39:59;;;;;;;29.55;13.32;;;;;;;8.82;100.00;99614.03;4768655;30;20035;-77
2023/12/13 10:42:25;;;;;;;25.88;13.13;;;;;;;8.91;100.00;99622.81;4767974;30;20035;-77
2023/12/13 10:44:52;;;;;;;28.98;13.45;;;;;;;8.86;100.00;99618.44;4768561;30;20428;-78
2023/12/13 10:47:25;;;;;;;30.85;13.13;;;;;;;8.80;100.00;99620.00;4772891;29;20124;-75
2023/12/13 10:49:55;;;;;;;27.38;12.68;;;;;;;8.82;100.00;99619.63;4772250;30;20039;-76
2023/12/13 10:52:22;;;;;;;27.52;14.45;;;;;;;8.79;100.00;99625.97;4753183;30;20031;-76
2023/12/13 10:54:48;;;;;;;30.73;13.23;;;;;;;8.80;100.00;99628.38;4768412;30;20489;-75
2023/12/13 10:57:14;;;;;;;29.70;14.77;;;;;;;8.78;100.00;99625.19;4766961;29;20121;-76
2023/12/13 10:59:43;;;;;;;29.50;13.38;;;;;;;8.83;100.00;99621.19;4766236;30;20837;-76
2023/12/13 11:02:12;;;;;;;27.60;12.20;;;;;;;8.91;100.00;99631.97;4765649;30;20038;-76
2023/12/13 11:04:37;;;;;;;29.88;13.90;;;;;;;8.98;100.00;99627.59;4765981;30;20032;-76
2023/12/13 11:07:06;;;;;;;26.30;13.38;;;;;;;8.98;100.00;99628.41;4763925;30;20413;-76
2023/12/13 11:09:32;;;;;;;25.75;13.38;;;;;;;9.04;100.00;99634.38;4764692;30;20035;-76
2023/12/13 11:12:09;;;;;;;29.90;13.23;;;;;;;8.99;100.00;99632.78;4766279;30;20047;-76
2023/12/13 11:14:35;;;;;;;30.88;13.20;;;;;;;9.04;100.00;99635.16;4766265;30;20031;-76
2023/12/13 11:17:00;;;;;;;22.02;12.10;;;;;;;9.13;100.00;99651.56;4766617;30;20040;-76
2023/12/13 11:19:27;;;;;;;26.30;12.75;;;;;;;9.18;100.00;99653.94;4777211;29;20135;-75
2023/12/13 11:21:52;;;;;;;28.90;13.65;;;;;;;9.10;100.00;99652.31;4766388;30;20403;-76
2023/12/13 11:24:23;;;;;;;25.85;14.38;;;;;;;9.02;100.00;99662.69;4769113;29;20031;-76
2023/12/13 11:26:50;;;;;;;28.73;12.75;;;;;;;8.94;100.00;99653.53;4766062;30;20082;-76
2023/12/13 11:29:23;;;;;;;27.02;12.13;;;;;;;8.93;100.00;99665.06;4766532;29;20051;-76
2023/12/13 11:31:53;;;;;;;;;;;;;;;8.96;100.00;99661.50;4770003;30;20599;-76
2023/12/13 11:34:41;;;;;;;25.77;13.20;;;;;;;9.01;100.00;99661.09;4780079;29;19971;-76
2023/12/13 11:37:08;;;;;;;28.95;14.15;;;;;;;9.08;100.00;99661.09;4782235;29;20075;-76
2023/12/13 11:39:35;;;;;;;28.83;13.38;;;;;;;9.10;100.00;99660.69;4767157;30;20031;-76
2023/12/13 11:42:02;;;;;;;32.60;14.60;;;;;;;9.13;100.00;99660.72;4761548;30;20122;-76
2023/12/13 11:44:32;;;;;;;21.33;11.18;;;;;;;9.11;100.00;99668.69;4760829;30;20024;-76
2023/12/13 11:46:59;;;;;;;29.10;13.40;;;;;;;9.07;100.00;99670.69;4764812;30;20059;-77
2023/12/13 11:49:26;;;;;;;26.35;14.55;;;;;;;9.06;100.00;99669.06;4762732;29;20035;-76
2023/12/13 11:51:55;;;;;;;27.73;13.00;;;;;;;9.16;100.00;99673.88;4765982;30;20081;-76
2023/12/13 11:54:21;;;;;;;32.58;13.40;;;;;;;9.14;100.00;99672.66;4770234;30;20089;-76
2023/12/13 11:56:46;;;;;;;25.67;12.88;;;;;;;9.00;100.00;99673.44;4771160;29;20035;-76
2023/12/13 11:59:12;;;;;;;24.25;13.15;;;;;;;9.06;100.00;99663.47;4763791;30;20038;-76
2023/12/13 12:01:37;;;;;;;26.52;12.75;;;;;;;9.07;100.00;99672.69;4762279;30;20107;-77
2023/12/13 12:04:03;;;;;;;22.20;11.15;;;;;;;9.19;100.00;99682.66;4762015;30;20493;-77
2023/12/13 12:06:29;;;;;;;26.27;12.18;;;;;;;9.05;100.00;99678.66;4761863;30;20040;-76
2023/12/13 12:08:54;;;;;;;28.35;13.57;;;;;;;9.02;100.00;99678.63;4766685;29;20032;-77
2023/12/13 12:11:20;;;;;;;26.75;14.48;;;;;;;9.14;100.00;99683.84;4764739;30;20104;-76
2023/12/13 12:13:46;;;;;;;26.13;12.38;;;;;;;9.10;100.00;99677.44;4772819;29;20047;-76
2023/12/13 12:16:11;;;;;;;38.42;13.32;;;;;;;9.12;100.00;99683.44;4760323;30;20031;-76
2023/12/13 12:18:41;;;;;;;30.70;14.95;;;;;;;9.20;100.00;99681.47;4772428;30;20031;-76
2023/12/13 12:21:11;;;;;;;25.48;14.50;;;;;;;9.24;100.00;99690.63;4767694;30;20037;-76
2023/12/13 12:23:41;;;;;;;27.10;13.30;;;;;;;9.08;100.00;99689.00;4771776;30;20565;-76
2023/12/13 12:26:11;;;;;;;29.88;12.93;;;;;;;9.08;100.00;99700.19;4766505;30;20382;-76
2023/12/13 12:28:39;;;;;;;28.52;13.80;;;;;;;9.18;100.00;99697.81;4767570;30;20036;-75
2023/12/13 12:31:04;;;;;;;27.92;12.23;;;;;;;9.14;100.00;99684.63;4765951;30;20096;-76
2023/12/13 12:33:30;;;;;;;28.80;12.60;;;;;;;9.25;100.00;99692.22;4768880;30;20040;-76
2023/12/13 12:35:57;;;;;;;26.35;12.63;;;;;;;9.31;100.00;99685.84;4765817;30;20036;-77
2023/12/13 12:38:23;;;;;;;29.13;13.93;;;;;;;9.21;100.00;99685.84;4767543;30;20028;-76
2023/12/13 12:40:49;;;;;;;25.33;12.80;;;;;;;9.22;100.00;99688.25;4766897;30;20031;-76
2023/12/13 12:43:21;;;;;;;25.80;12.23;;;;;;;9.21;100.00;99685.84;4766600;30;20378;-76
2023/12/13 12:45:47;;;;;;;28.38;13.02;;;;;;;9.29;100.00;99690.22;4764094;30;20040;-76
2023/12/13 12:48:13;;;;;;;28.95;12.32;;;;;;;9.18;100.00;99689.44;4763604;29;20536;-76
2023/12/13 12:50:39;;;;;;;32.58;13.80;;;;;;;9.21;100.00;99692.22;4763758;30;20059;-76
2023/12/13 12:53:04;;;;;;;27.77;13.35;;;;;;;9.24;100.00;99693.44;4765217;30;20122;-76
2023/12/13 12:55:29;;;;;;;25.38;11.70;;;;;;;9.62;100.00;99691.81;4774679;30;20434;-76
2023/12/13 12:57:55;;;;;;;27.45;13.27;;;;;;;9.54;100.00;99695.81;4778286;29;20558;-76
2023/12/13 13:00:20;;;;;;;25.00;13.50;;;;;;;9.31;100.00;99697.00;4767907;30;20051;-77
2023/12/13 13:02:47;;;;;;;28.80;11.93;;;;;;;9.31;100.00;99699.81;4780396;30;20043;-76
2023/12/13 13:05:13;;;;;;;31.20;13.13;;;;;;;9.39;100.00;99702.63;4766775;30;20389;-76
2023/12/13 13:07:39;;;;;;;26.70;13.15;;;;;;;9.27;100.00;99710.16;4769876;30;20035;-74
2023/12/13 13:10:05;;;;;;;26.40;14.20;;;;;;;9.36;100.00;99710.59;4766401;30;20059;-73
2023/12/13 13:12:31;;;;;;;28.10;11.43;;;;;;;9.33;100.00;99713.38;4766154;30;20085;-72
2023/12/13 13:14:56;;;;;;;29.02;12.18;;;;;;;9.28;100.00;99716.56;4765526;30;20035;-73
2023/12/13 13:17:22;;;;;;;25.92;12.88;;;;;;;9.30;100.00;99722.56;4762729;30;20089;-74
2023/12/13 13:19:47;;;;;;;23.40;12.10;;;;;;;9.45;100.00;99724.16;4780125;30;20046;-74
2023/12/13 13:22:13;;;;;;;28.85;12.70;;;;;;;9.45;100.00;99723.38;4765379;30;20589;-73
2023/12/13 13:24:38;;;;;;;28.30;13.02;;;;;;;9.42;100.00;99724.16;4765450;30;20130;-74
2023/12/13 13:27:04;;;;;;;21.92;10.77;;;;;;;9.34;100.00;99728.94;4767501;29;20448;-74
2023/12/13 13:29:29;;;;;;;25.05;11.30;;;;;;;9.43;100.00;99723.75;4776561;29;20039;-72
2023/12/13 13:31:54;;;;;;;23.30;12.18;;;;;;;9.30;100.00;99733.72;4775942;29;20089;-72
2023/12/13 13:34:20;;;;;;;27.27;12.18;;;;;;;9.36;100.00;99732.16;4762035;30;20040;-73
2023/12/13 13:36:45;;;;;;;23.20;11.23;;;;;;;9.35;100.00;99747.28;4769672;30;20089;-72
2023/12/13 13:39:13;;;;;;;24.70;11.93;;;;;;;9.21;100.00;99738.88;4766034;29;20428;-73
2023/12/13 13:41:39;;;;;;;21.58;9.90;;;;;;;9.22;100.00;99740.50;4760653;30;20097;-72
2023/12/13 13:44:05;;;;;;;23.90;12.82;;;;;;;9.41;100.00;99742.91;4763000;30;20437;-73
2023/12/13 13:46:30;;;;;;;22.35;11.48;;;;;;;9.31;100.00;99740.91;4756691;30;20095;-72
2023/12/13 13:48:56;;;;;;;21.98;10.50;;;;;;;9.43;100.00;99746.09;4763969;30;20138;-74
2023/12/13 13:51:24;;;;;;;20.30;10.95;;;;;;;9.41;100.00;99744.91;4758444;30;20075;-74
2023/12/13 13:53:49;;;;;;;21.08;10.90;;;;;;;9.43;100.00;99748.09;4762658;30;20581;-73
2023/12/13 13:56:14;;;;;;;27.02;11.30;;;;;;;9.38;100.00;99752.06;4767811;30;20042;-73
2023/12/13 13:58:40;;;;;;;19.50;10.27;;;;;;;9.30;100.00;99756.06;4764441;30;20102;-72
2023/12/13 14:01:05;;;;;;;31.02;12.65;;;;;;;9.36;100.00;99758.06;4762293;30;20172;-72
2023/12/13 14:03:30;;;;;;;27.65;10.82;;;;;;;9.43;100.00;99757.28;4758442;30;20072;-72
2023/12/13 14:05:58;;;;;;;23.08;9.45;;;;;;;9.45;100.00;99763.25;4759566;30;20047;-74
2023/12/13 14:08:24;;;;;;;23.20;10.18;;;;;;;9.38;100.00;99763.22;4762316;30;20040;-73
2023/12/13 14:10:51;;;;;;;20.83;9.98;;;;;;;9.32;100.00;99771.22;4780377;29;20038;-73
2023/12/13 14:13:16;;;;;;;24.25;9.77;;;;;;;9.43;100.00;99771.25;4765146;29;20109;-72
2023/12/13 14:15:42;;;;;;;31.85;11.38;;;;;;;9.53;100.00;99781.63;4763782;30;20043;-72
2023/12/13 14:18:07;;;;;;;23.80;10.38;;;;;;;9.45;100.00;99779.22;4762427;29;20043;-75
2023/12/13 14:20:33;;;;;;;21.00;9.27;;;;;;;9.49;100.00;99786.41;4765508;30;21020;-75
2023/12/13 14:22:58;;;;;;;20.15;10.07;;;;;;;9.50;100.00;99782.41;4766246;29;20034;-74
2023/12/13 14:25:24;;;;;;;25.38;10.02;;;;;;;9.49;100.00;99789.22;4761434;30;20035;-74
2023/12/13 14:27:49;;;;;;;27.65;10.60;;;;;;;9.56;100.00;99797.56;4762811;30;20044;-74
2023/12/13 14:30:14;;;;;;;19.80;9.75;;;;;;;9.55;100.00;99798.78;4759817;30;20373;-75
2023/12/13 14:32:40;;;;;;;21.52;9.88;;;;;;;9.59;100.00;99795.19;4758913;30;20404;-75
2023/12/13 14:35:06;;;;;;;24.13;10.48;;;;;;;9.57;100.00;99799.19;4769924;30;20075;-75
2023/12/13 14:37:34;;;;;;;24.70;11.07;;;;;;;9.59;100.00;99800.78;4764571;29;20032;-75
2023/12/13 14:40:00;;;;;;;21.70;10.90;;;;;;;9.57;100.00;99810.38;4769936;30;20031;-74
2023/12/13 14:42:25;;;;;;;19.23;9.70;;;;;;;9.44;100.00;99800.75;4767301;30;20031;-74
2023/12/13 14:44:50;;;;;;;20.20;10.02;;;;;;;9.54;100.00;99811.16;4768185;30;20051;-74
2023/12/13 14:47:16;;;;;;;21.88;10.20;;;;;;;9.57;100.00;99815.13;4764759;30;20052;-74
2023/12/13 14:49:41;;;;;;;17.77;10.38;;;;;;;9.60;100.00;99824.75;4763266;30;20039;-75
2023/12/13 14:52:07;;;;;;;22.13;9.15;;;;;;;9.59;100.00;99842.69;4769087;30;20110;-74
2023/12/13 14:54:32;;;;;;;20.45;9.63;;;;;;;9.61;100.00;99838.28;4764239;30;20065;-75
2023/12/13 14:56:59;;;;;;;21.27;10.73;;;;;;;9.62;100.00;99839.91;4769393;30;20055;-75
2023/12/13 14:59:24;;;;;;;22.02;11.50;;;;;;;9.65;100.00;99853.06;4763928;29;20501;-74
2023/12/13 15:01:50;;;;;;;29.88;11.80;;;;;;;9.61;100.00;99852.25;4764187;30;20035;-75
2023/12/13 15:04:15;;;;;;;21.63;11.30;;;;;;;10.07;100.00;99861.91;4763596;29;20043;-75
2023/12/13 15:06:42;;;;;;;21.63;11.43;;;;;;;9.87;100.00;99859.50;4761918;30;20059;-75
2023/12/13 15:09:07;;;;;;;20.35;10.23;;;;;;;9.79;100.00;99863.47;4760241;30;20318;-74
2023/12/13 15:11:32;;;;;;;21.95;10.98;;;;;;;9.76;100.00;99872.63;4762199;30;20040;-74
2023/12/13 15:13:58;;;;;;;22.30;10.48;;;;;;;9.71;100.00;99873.03;4759277;30;20135;-75
2023/12/13 15:16:23;;;;;;;23.58;11.27;;;;;;;9.63;100.00;99871.44;4763218;30;20503;-74
2023/12/13 15:18:49;;;;;;;22.77;10.82;;;;;;;9.62;100.00;99879.03;4757787;30;20940;-74
2023/12/13 15:21:14;;;;;;;23.35;11.18;;;;;;;9.56;100.00;99886.19;4765703;30;20039;-75
2023/12/13 15:23:40;;;;;;;23.00;11.38;;;;;;;9.46;100.00;99881.38;4759249;30;20042;-74
2023/12/13 15:26:07;;;;;;;28.40;12.80;;;;;;;9.31;100.00;99888.91;4757025;30;20172;-74
2023/12/13 15:28:33;;;;;;;25.25;10.95;;;;;;;9.27;100.00;99890.88;4763668;30;20536;-75
2023/12/13 15:30:58;;;;;;;30.83;14.00;;;;;;;9.28;100.00;99895.28;4764223;30;20024;-74
2023/12/13 15:33:24;;;;;;;28.50;12.70;;;;;;;9.27;100.00;99904.84;4761209;30;20040;-75
2023/12/13 15:35:50;;;;;;;31.00;14.23;;;;;;;9.21;100.00;99907.19;4767344;30;20055;-75
2023/12/13 15:38:15;;;;;;;28.83;14.98;;;;;;;9.27;100.00;99907.63;4762350;30;20047;-75
2023/12/13 15:40:40;;;;;;;35.83;15.95;;;;;;;9.33;100.00;99912.44;4757413;30;20024;-74
2023/12/13 15:43:07;;;;;;;24.55;12.98;;;;;;;9.36;100.00;99917.25;4763920;30;20038;-75
2023/12/13 15:45:33;;;;;;;32.08;14.93;;;;;;;9.20;100.00;99916.00;4763271;30;20027;-74
2023/12/13 15:47:58;;;;;;;32.97;16.48;;;;;;;9.33;100.00;99918.03;4759229;29;20044;-74
2023/12/13 15:50:23;;;;;;;34.25;14.07;;;;;;;9.30;100.00;99929.22;4763237;30;20039;-74
2023/12/13 15:52:48;;;;;;;29.38;13.32;;;;;;;9.10;100.00;99926.69;4773174;29;20039;-74
2023/12/13 15:55:16;;;;;;;25.30;11.70;;;;;;;9.10;100.00;99920.31;4760181;30;20024;-73
2023/12/13 15:57:41;;;;;;;25.38;11.18;;;;;;;9.07;100.00;99924.69;4762480;30;20106;-73
2023/12/13 16:00:07;;;;;;;35.60;15.38;;;;;;;9.12;100.00;99935.47;4760243;30;20473;-73
2023/12/13 16:02:33;;;;;;;34.95;15.48;;;;;;;9.08;100.00;99934.66;4772995;29;20559;-75
2023/12/13 16:04:58;;;;;;;30.88;13.75;;;;;;;9.13;100.00;99942.69;4759810;30;20055;-75
2023/12/13 16:07:23;;;;;;;36.25;14.48;;;;;;;9.12;100.00;99943.84;4757586;30;20059;-75
2023/12/13 16:09:49;;;;;;;31.33;13.77;;;;;;;9.14;100.00;99946.25;4760250;30;20042;-76
2023/12/13 16:12:14;;;;;;;28.90;14.57;;;;;;;8.97;100.00;99956.16;4764580;30;20121;-77
2023/12/13 16:14:40;;;;;;;31.40;13.77;;;;;;;8.91;100.00;99952.13;4760669;30;20038;-75
2023/12/13 16:17:05;;;;;;;31.02;15.40;;;;;;;9.08;100.00;99954.19;4759230;30;20110;-75
2023/12/13 16:19:32;;;;;;;41.72;16.45;;;;;;;8.82;100.00;99960.84;4761755;30;20131;-74
2023/12/13 16:21:57;;;;;;;40.45;15.88;;;;;;;8.89;100.00;99962.88;4774155;30;20039;-78
2023/12/13 16:24:22;;;;;;;26.50;11.70;;;;;;;8.88;100.00;99969.66;4755691;30;20046;-77
2023/12/13 16:26:51;;;;;;;36.50;15.48;;;;;;;8.98;100.00;99974.50;4759932;30;20028;-78
2023/12/13 16:29:17;;;;;;;33.70;14.65;;;;;;;9.02;100.00;99977.31;4763359;29;20028;-77
2023/12/13 16:31:43;;;;;;;41.38;17.17;;;;;;;8.97;100.00;99983.25;4761600;30;20043;-77
2023/12/13 16:34:09;;;;;;;32.30;15.38;;;;;;;9.04;100.00;99986.88;4762406;30;20032;-78
2023/12/13 16:36:34;;;;;;;31.58;14.32;;;;;;;9.01;100.00;99984.88;4761050;30;20035;-76
2023/12/13 16:38:59;;;;;;;33.40;14.35;;;;;;;9.00;100.00;100000.00;4754477;29;20039;-76
2023/12/13 16:41:25;;;;;;;29.67;13.80;;;;;;;8.84;100.00;99999.53;4753068;30;20047;-77
2023/12/13 16:43:50;;;;;;;30.92;16.30;;;;;;;8.85;100.00;100003.91;4757102;30;20067;-76
2023/12/13 16:46:17;;;;;;;35.58;15.45;;;;;;;8.76;100.00;100001.44;4751872;30;20040;-76
2023/12/13 16:48:46;;;;;;;44.08;15.10;;;;;;;8.84;100.00;100005.09;4772563;29;20445;-76
2023/12/13 16:51:12;;;;;;;39.85;15.13;;;;;;;8.92;100.00;99999.19;4761795;30;20043;-76
2023/12/13 16:53:37;;;;;;;41.60;16.17;;;;;;;8.87;100.00;100019.06;4762933;30;20046;-76
2023/12/13 16:56:03;;;;;;;36.50;15.98;;;;;;;8.90;100.00;100021.09;4763169;30;20040;-76
2023/12/13 16:58:28;;;;;;;31.08;14.25;;;;;;;8.91;100.00;100024.69;4762190;30;20499;-76